createdAt,value
2023-06-20T00:00:45.541Z,11.56
2023-06-20T00:01:44.993Z,11.48
2023-06-20T00:02:45.087Z,11.39
2023-06-20T00:03:45.124Z,11.29
2023-06-20T00:04:45.165Z,11.34
2023-06-20T00:05:45.244Z,11.27
2023-06-20T00:06:45.260Z,11.21
2023-06-20T00:07:45.315Z,11.01
2023-06-20T00:08:45.381Z,10.87
2023-06-20T00:09:45.409Z,10.80
2023-06-20T00:10:45.480Z,10.83
2023-06-20T00:11:45.570Z,10.58
2023-06-20T00:12:45.566Z,10.56
2023-06-20T00:13:45.665Z,10.56
2023-06-20T00:14:45.702Z,10.53
2023-06-20T00:15:45.736Z,10.43
2023-06-20T00:16:45.802Z,10.49
2023-06-20T00:17:45.870Z,10.41
2023-06-20T00:18:46.045Z,10.28
2023-06-20T00:19:45.951Z,10.34
2023-06-20T00:20:46.014Z,10.59
2023-06-20T00:21:46.061Z,10.45
2023-06-20T00:22:46.114Z,10.32
2023-06-20T00:23:46.180Z,10.27
2023-06-20T00:24:46.308Z,10.10
2023-06-20T00:25:46.285Z,9.87
2023-06-20T00:26:46.348Z,9.65
2023-06-20T00:27:46.409Z,9.46
2023-06-20T00:28:46.455Z,9.28
2023-06-20T00:29:46.536Z,9.23
2023-06-20T00:30:46.571Z,9.16
2023-06-20T00:31:46.624Z,9.16
2023-06-20T00:32:46.720Z,9.15
2023-06-20T00:33:46.776Z,9.32
2023-06-20T00:34:46.834Z,9.26
2023-06-20T00:35:46.856Z,9.23
2023-06-20T00:36:46.904Z,9.25
2023-06-20T00:37:46.961Z,9.30
2023-06-20T00:38:47.032Z,9.21
2023-06-20T00:39:47.105Z,9.29
2023-06-20T00:40:47.127Z,9.13
2023-06-20T00:41:47.179Z,8.92
2023-06-20T00:42:47.250Z,8.86
2023-06-20T00:43:47.335Z,8.78
2023-06-20T00:44:47.358Z,8.86
2023-06-20T00:45:47.492Z,9.00
2023-06-20T00:46:47.553Z,8.89
2023-06-20T00:47:47.592Z,9.05
2023-06-20T00:48:47.642Z,9.11
2023-06-20T00:49:47.671Z,9.10
2023-06-20T00:50:47.733Z,8.90
2023-06-20T00:51:47.786Z,8.89
2023-06-20T00:52:47.859Z,8.97
2023-06-20T00:53:47.919Z,8.96
2023-06-20T00:54:47.946Z,9.02
2023-06-20T00:55:48.027Z,8.98
2023-06-20T00:56:48.046Z,8.91
2023-06-20T00:57:48.098Z,9.06
2023-06-20T00:58:48.191Z,8.94
2023-06-20T00:59:48.216Z,9.05
2023-06-20T01:00:48.286Z,9.11
2023-06-20T01:01:48.411Z,9.10
2023-06-20T01:02:48.561Z,9.00
2023-06-20T01:03:48.743Z,8.91
2023-06-20T01:04:48.544Z,8.84
2023-06-20T01:05:48.610Z,8.87
2023-06-20T01:06:48.674Z,8.76
2023-06-20T01:07:48.706Z,8.85
2023-06-20T01:08:48.791Z,8.59
2023-06-20T01:09:48.854Z,8.58
2023-06-20T01:10:48.927Z,8.58
2023-06-20T01:11:48.943Z,8.51
2023-06-20T01:12:49.001Z,8.45
2023-06-20T01:13:49.097Z,8.42
2023-06-20T01:14:49.163Z,8.29
2023-06-20T01:15:49.237Z,8.48
2023-06-20T01:16:49.263Z,8.27
2023-06-20T01:17:49.385Z,8.22
2023-06-20T01:18:49.459Z,8.24
2023-06-20T01:19:49.505Z,8.00
2023-06-20T01:20:49.524Z,8.04
2023-06-20T01:21:49.597Z,8.09
2023-06-20T01:22:49.633Z,8.10
2023-06-20T01:23:49.705Z,8.07
2023-06-20T01:24:49.786Z,8.10
2023-06-20T01:25:49.855Z,8.05
2023-06-20T01:26:49.910Z,8.06
2023-06-20T01:27:49.986Z,8.11
2023-06-20T01:28:50.022Z,8.06
2023-06-20T01:29:50.103Z,8.03
2023-06-20T01:30:50.153Z,7.74
2023-06-20T01:31:50.210Z,7.85
2023-06-20T01:32:50.336Z,7.86
2023-06-20T01:33:50.372Z,7.77
2023-06-20T01:34:50.372Z,7.88
2023-06-20T01:35:50.423Z,7.81
2023-06-20T01:36:50.494Z,7.88
2023-06-20T01:37:50.539Z,7.77
2023-06-20T01:38:50.591Z,7.83
2023-06-20T01:39:50.636Z,7.64
2023-06-20T01:40:50.699Z,7.74
2023-06-20T01:41:50.755Z,7.73
2023-06-20T01:42:50.811Z,7.60
2023-06-20T01:43:50.864Z,7.60
2023-06-20T01:44:50.917Z,7.53
2023-06-20T01:45:50.936Z,7.53
2023-06-20T01:46:51.050Z,7.48
2023-06-20T01:47:51.085Z,7.55
2023-06-20T01:48:51.162Z,7.54
2023-06-20T01:49:51.173Z,7.56
2023-06-20T01:50:51.219Z,7.43
2023-06-20T01:51:51.291Z,7.43
2023-06-20T01:52:51.357Z,7.41
2023-06-20T01:53:51.353Z,7.39
2023-06-20T01:54:51.394Z,7.40
2023-06-20T01:55:51.497Z,7.42
2023-06-20T01:56:51.513Z,7.37
2023-06-20T01:57:51.525Z,7.38
2023-06-20T01:58:51.584Z,7.36
2023-06-20T01:59:51.723Z,7.45
2023-06-20T02:00:51.691Z,7.42
2023-06-20T02:01:51.752Z,7.41
2023-06-20T02:02:51.857Z,7.31
2023-06-20T02:03:51.945Z,7.30
2023-06-20T02:04:51.906Z,7.30
2023-06-20T02:05:51.928Z,7.28
2023-06-20T02:06:51.960Z,7.22
2023-06-20T02:07:52.021Z,7.23
2023-06-20T02:08:52.114Z,7.24
2023-06-20T02:09:52.121Z,7.23
2023-06-20T02:10:52.164Z,7.12
2023-06-20T02:11:52.159Z,7.11
2023-06-20T02:12:52.218Z,7.05
2023-06-20T02:13:52.268Z,7.05
2023-06-20T02:14:52.308Z,7.01
2023-06-20T02:15:52.363Z,7.05
2023-06-20T02:16:52.459Z,7.09
2023-06-20T02:17:52.522Z,7.11
2023-06-20T02:18:52.534Z,7.19
2023-06-20T02:19:52.617Z,7.08
2023-06-20T02:20:53.621Z,6.99
2023-06-20T02:21:52.694Z,7.02
2023-06-20T02:22:52.759Z,6.97
2023-06-20T02:23:52.803Z,6.89
2023-06-20T02:24:52.857Z,6.91
2023-06-20T02:25:52.874Z,6.86
2023-06-20T02:26:52.943Z,6.82
2023-06-20T02:27:52.969Z,6.81
2023-06-20T02:28:53.003Z,6.83
2023-06-20T02:29:53.113Z,6.69
2023-06-20T02:30:53.116Z,6.72
2023-06-20T02:31:53.138Z,6.64
2023-06-20T02:32:53.242Z,6.57
2023-06-20T02:33:53.212Z,6.50
2023-06-20T02:34:53.248Z,6.42
2023-06-20T02:35:53.260Z,6.39
2023-06-20T02:36:53.305Z,6.37
2023-06-20T02:37:53.326Z,6.30
2023-06-20T02:38:53.376Z,6.32
2023-06-20T02:39:53.395Z,6.20
2023-06-20T02:40:53.419Z,6.21
2023-06-20T02:41:53.488Z,6.12
2023-06-20T02:42:53.499Z,6.01
2023-06-20T02:43:53.559Z,6.01
2023-06-20T02:44:53.574Z,6.00
2023-06-20T02:45:53.651Z,5.97
2023-06-20T02:46:53.566Z,5.99
2023-06-20T02:47:53.574Z,6.04
2023-06-20T02:48:53.564Z,5.90
2023-06-20T02:49:53.573Z,5.97
2023-06-20T02:50:53.638Z,5.97
2023-06-20T02:51:53.678Z,5.82
2023-06-20T02:52:53.711Z,5.72
2023-06-20T02:53:53.717Z,5.73
2023-06-20T02:54:53.730Z,5.80
2023-06-20T02:55:53.744Z,5.77
2023-06-20T02:56:53.733Z,5.77
2023-06-20T02:57:53.771Z,5.71
2023-06-20T02:58:53.784Z,5.78
2023-06-20T02:59:53.774Z,5.75
2023-06-20T03:00:53.936Z,5.71
2023-06-20T03:01:53.850Z,5.78
2023-06-20T03:02:53.874Z,5.75
2023-06-20T03:03:53.827Z,5.81
2023-06-20T03:04:53.793Z,5.81
2023-06-20T03:05:53.798Z,5.80
2023-06-20T03:06:53.822Z,5.79
2023-06-20T03:07:53.813Z,5.81
2023-06-20T03:08:53.831Z,5.82
2023-06-20T03:09:53.798Z,5.88
2023-06-20T03:10:53.824Z,5.86
2023-06-20T03:11:53.797Z,5.92
2023-06-20T03:12:53.811Z,5.95
2023-06-20T03:13:53.835Z,6.07
2023-06-20T03:14:53.864Z,5.95
2023-06-20T03:15:53.906Z,6.09
2023-06-20T03:16:53.888Z,6.07
2023-06-20T03:17:53.951Z,5.99
2023-06-20T03:18:53.917Z,6.04
2023-06-20T03:19:53.926Z,6.12
2023-06-20T03:20:53.954Z,6.14
2023-06-20T03:21:53.946Z,6.28
2023-06-20T03:22:53.946Z,6.06
2023-06-20T03:23:53.919Z,6.08
2023-06-20T03:24:53.957Z,6.08
2023-06-20T03:25:53.916Z,6.09
2023-06-20T03:26:53.936Z,6.02
2023-06-20T03:27:53.943Z,6.05
2023-06-20T03:28:53.943Z,6.06
2023-06-20T03:29:53.942Z,6.12
2023-06-20T03:30:53.969Z,6.11
2023-06-20T03:31:53.929Z,6.19
2023-06-20T03:32:53.959Z,6.18
2023-06-20T03:33:53.925Z,6.10
2023-06-20T03:34:53.882Z,6.14
2023-06-20T03:35:53.879Z,6.15
2023-06-20T03:36:53.900Z,6.18
2023-06-20T03:37:53.869Z,6.18
2023-06-20T03:38:53.861Z,6.16
2023-06-20T03:39:53.859Z,6.07
2023-06-20T03:40:53.868Z,6.16
2023-06-20T03:41:53.887Z,6.06
2023-06-20T03:42:53.864Z,6.16
2023-06-20T03:43:53.876Z,6.09
2023-06-20T03:44:53.868Z,6.14
2023-06-20T03:45:53.872Z,6.05
2023-06-20T03:46:53.979Z,6.04
2023-06-20T03:47:53.923Z,5.97
2023-06-20T03:48:53.869Z,5.99
2023-06-20T03:49:53.890Z,6.01
2023-06-20T03:50:53.841Z,5.98
2023-06-20T03:51:53.862Z,5.95
2023-06-20T03:52:53.842Z,5.95
2023-06-20T03:53:53.892Z,6.02
2023-06-20T03:54:53.851Z,5.94
2023-06-20T03:55:53.845Z,5.96
2023-06-20T03:56:53.924Z,5.86
2023-06-20T03:57:53.861Z,5.83
2023-06-20T03:58:53.887Z,5.82
2023-06-20T03:59:53.872Z,5.82
2023-06-20T04:00:53.866Z,5.94
2023-06-20T04:01:53.797Z,5.84
2023-06-20T04:02:53.847Z,5.84
2023-06-20T04:03:53.984Z,5.83
2023-06-20T04:04:53.864Z,5.86
2023-06-20T04:05:53.872Z,5.94
2023-06-20T04:06:53.798Z,5.87
2023-06-20T04:07:53.880Z,5.82
2023-06-20T04:08:53.793Z,5.83
2023-06-20T04:09:53.810Z,5.79
2023-06-20T04:10:53.785Z,5.71
2023-06-20T04:11:53.793Z,5.83
2023-06-20T04:12:53.776Z,5.73
2023-06-20T04:13:53.785Z,5.64
2023-06-20T04:14:53.800Z,5.78
2023-06-20T04:15:53.777Z,5.72
2023-06-20T04:16:53.788Z,5.63
2023-06-20T04:17:53.845Z,5.60
2023-06-20T04:18:53.791Z,5.66
2023-06-20T04:19:53.795Z,5.65
2023-06-20T04:20:53.777Z,5.59
2023-06-20T04:21:53.795Z,5.72
2023-06-20T04:22:53.807Z,5.64
2023-06-20T04:23:53.767Z,5.70
2023-06-20T04:24:53.802Z,5.66
2023-06-20T04:25:53.778Z,5.57
2023-06-20T04:26:53.764Z,5.64
2023-06-20T04:27:53.786Z,5.71
2023-06-20T04:28:53.776Z,5.73
2023-06-20T04:29:53.772Z,5.84
2023-06-20T04:30:53.772Z,5.86
2023-06-20T04:31:53.804Z,5.75
2023-06-20T04:32:53.827Z,5.62
2023-06-20T04:33:53.811Z,5.50
2023-06-20T04:34:53.882Z,5.55
2023-06-20T04:35:53.800Z,5.62
2023-06-20T04:36:53.807Z,5.53
2023-06-20T04:37:53.819Z,5.53
2023-06-20T04:38:53.845Z,5.60
2023-06-20T04:39:53.864Z,5.62
2023-06-20T04:40:53.820Z,5.64
2023-06-20T04:41:53.833Z,5.61
2023-06-20T04:42:53.833Z,5.57
2023-06-20T04:43:53.881Z,5.49
2023-06-20T04:44:53.894Z,5.48
2023-06-20T04:45:53.914Z,5.50
2023-06-20T04:46:53.874Z,5.56
2023-06-20T04:47:54.102Z,5.49
2023-06-20T04:48:53.930Z,5.51
2023-06-20T04:49:54.203Z,5.44
2023-06-20T04:50:53.911Z,5.45
2023-06-20T04:51:53.981Z,5.42
2023-06-20T04:52:53.961Z,5.46
2023-06-20T04:53:54.025Z,5.50
2023-06-20T04:54:54.188Z,5.49
2023-06-20T04:55:54.012Z,5.45
2023-06-20T04:56:53.999Z,5.50
2023-06-20T04:57:54.048Z,5.54
2023-06-20T04:58:54.015Z,5.68
2023-06-20T04:59:54.169Z,5.61
2023-06-20T05:00:54.058Z,5.61
2023-06-20T05:01:54.067Z,5.63
2023-06-20T05:02:54.061Z,5.70
2023-06-20T05:03:54.186Z,5.54
2023-06-20T05:04:54.061Z,5.54
2023-06-20T05:05:54.073Z,5.62
2023-06-20T05:06:54.075Z,5.64
2023-06-20T05:07:54.080Z,5.67
2023-06-20T05:08:54.096Z,5.76
2023-06-20T05:09:54.100Z,5.74
2023-06-20T05:10:54.082Z,5.73
2023-06-20T05:11:54.121Z,5.53
2023-06-20T05:12:54.104Z,5.36
2023-06-20T05:13:54.108Z,5.31
2023-06-20T05:14:54.115Z,5.15
2023-06-20T05:15:54.180Z,5.12
2023-06-20T05:16:54.157Z,5.05
2023-06-20T05:17:54.351Z,4.97
2023-06-20T05:18:54.249Z,4.95
2023-06-20T05:19:54.301Z,4.96
2023-06-20T05:20:54.379Z,4.94
2023-06-20T05:21:54.429Z,5.04
2023-06-20T05:22:54.564Z,5.00
2023-06-20T05:23:54.672Z,4.94
2023-06-20T05:24:54.630Z,4.97
2023-06-20T05:25:54.631Z,5.02
2023-06-20T05:26:54.751Z,5.16
2023-06-20T05:27:54.707Z,5.39
2023-06-20T05:28:54.712Z,5.39
2023-06-20T05:29:54.826Z,6.24
2023-06-20T05:30:54.798Z,6.18
2023-06-20T05:31:55.149Z,6.41
2023-06-20T05:32:55.191Z,6.36
2023-06-20T05:33:54.982Z,6.49
2023-06-20T05:34:55.213Z,6.76
2023-06-20T05:35:55.108Z,6.65
2023-06-20T05:36:55.129Z,6.67
2023-06-20T05:37:55.189Z,6.48
2023-06-20T05:38:55.233Z,6.35
2023-06-20T05:39:57.147Z,6.30
2023-06-20T05:40:55.328Z,6.30
2023-06-20T05:41:55.291Z,5.88
2023-06-20T05:42:55.264Z,5.80
2023-06-20T05:43:55.276Z,6.13
2023-06-20T05:44:55.278Z,6.44
2023-06-20T05:45:55.263Z,7.05
2023-06-20T05:46:55.322Z,7.49
2023-06-20T05:47:55.267Z,8.73
2023-06-20T05:48:55.248Z,10.40
2023-06-20T05:49:55.668Z,17.73
2023-06-20T05:50:55.230Z,13.38
2023-06-20T05:51:55.229Z,19.72
2023-06-20T05:52:55.245Z,13.38
2023-06-20T05:53:55.216Z,12.93
2023-06-20T05:54:55.203Z,17.59
2023-06-20T05:55:55.185Z,23.59
2023-06-20T05:56:55.177Z,15.56
2023-06-20T05:57:55.185Z,11.37
2023-06-20T05:58:55.173Z,9.51
2023-06-20T05:59:55.181Z,8.26
2023-06-20T06:00:55.172Z,7.78
2023-06-20T06:01:58.071Z,7.13
2023-06-20T06:02:55.324Z,6.87
2023-06-20T06:03:55.168Z,7.16
2023-06-20T06:04:55.241Z,7.34
2023-06-20T06:05:55.148Z,9.55
2023-06-20T06:06:55.116Z,9.01
2023-06-20T06:07:55.120Z,8.26
2023-06-20T06:08:55.123Z,8.18
2023-06-20T06:09:55.089Z,7.75
2023-06-20T06:10:55.101Z,10.25
2023-06-20T06:11:55.115Z,9.81
2023-06-20T06:12:55.086Z,8.63
2023-06-20T06:13:55.073Z,9.32
2023-06-20T06:14:55.181Z,11.63
2023-06-20T06:16:00.604Z,12.98
2023-06-20T06:16:56.213Z,13.01
2023-06-20T06:17:55.092Z,12.99
2023-06-20T06:18:55.034Z,10.72
2023-06-20T06:19:55.048Z,15.29
2023-06-20T06:20:55.022Z,11.05
2023-06-20T06:21:55.015Z,8.02
2023-06-20T06:22:55.018Z,6.98
2023-06-20T06:23:55.064Z,6.67
2023-06-20T06:24:54.999Z,6.17
2023-06-20T06:25:54.998Z,5.34
2023-06-20T06:26:55.016Z,5.20
2023-06-20T06:27:56.508Z,4.87
2023-06-20T06:28:54.968Z,4.70
2023-06-20T06:29:54.976Z,4.64
2023-06-20T06:30:55.126Z,4.92
2023-06-20T06:31:54.964Z,4.75
2023-06-20T06:32:55.263Z,4.39
2023-06-20T06:33:54.929Z,4.04
2023-06-20T06:34:54.951Z,3.99
2023-06-20T06:35:54.948Z,4.12
2023-06-20T06:36:54.917Z,3.85
2023-06-20T06:37:55.056Z,4.00
2023-06-20T06:38:54.937Z,3.81
2023-06-20T06:39:54.918Z,3.93
2023-06-20T06:40:54.904Z,3.99
2023-06-20T06:41:54.936Z,4.06
2023-06-20T06:42:55.631Z,4.05
2023-06-20T06:43:54.958Z,3.80
2023-06-20T06:44:54.898Z,4.02
2023-06-20T06:45:54.858Z,3.72
2023-06-20T06:46:54.925Z,3.63
2023-06-20T06:47:54.924Z,3.23
2023-06-20T06:48:54.845Z,3.39
2023-06-20T06:49:54.868Z,3.53
2023-06-20T06:50:54.828Z,3.39
2023-06-20T06:51:54.865Z,3.19
2023-06-20T06:52:54.832Z,3.07
2023-06-20T06:53:54.831Z,2.90
2023-06-20T06:54:54.819Z,3.15
2023-06-20T06:55:54.825Z,3.74
2023-06-20T06:56:54.832Z,3.65
2023-06-20T06:57:54.849Z,3.92
2023-06-20T06:58:54.891Z,3.71
2023-06-20T06:59:54.852Z,3.24
2023-06-20T07:00:54.907Z,3.00
2023-06-20T07:01:54.859Z,3.48
2023-06-20T07:02:54.937Z,3.62
2023-06-20T07:03:54.965Z,3.77
2023-06-20T07:04:54.911Z,3.60
2023-06-20T07:05:54.940Z,4.06
2023-06-20T07:06:54.983Z,3.74
2023-06-20T07:07:55.017Z,3.95
2023-06-20T07:08:55.007Z,3.64
2023-06-20T07:09:55.024Z,3.39
2023-06-20T07:10:55.010Z,3.28
2023-06-20T07:11:55.022Z,2.93
2023-06-20T07:12:55.173Z,3.07
2023-06-20T07:13:55.013Z,3.33
2023-06-20T07:14:55.087Z,3.44
2023-06-20T07:15:55.130Z,2.98
2023-06-20T07:17:05.491Z,2.91
2023-06-20T07:17:56.086Z,2.92
2023-06-20T07:18:55.053Z,2.83
2023-06-20T07:19:55.125Z,2.66
2023-06-20T07:20:55.047Z,2.93
2023-06-20T07:21:55.024Z,2.32
2023-06-20T07:22:55.024Z,2.20
2023-06-20T07:23:55.071Z,2.04
2023-06-20T07:24:57.146Z,2.01
2023-06-20T07:25:55.213Z,1.91
2023-06-20T07:26:55.152Z,1.96
2023-06-20T07:27:55.229Z,1.86
2023-06-20T07:28:55.243Z,1.61
2023-06-20T07:29:56.248Z,1.76
2023-06-20T07:30:55.337Z,1.86
2023-06-20T07:31:55.790Z,2.02
2023-06-20T07:32:55.480Z,2.47
2023-06-20T07:33:55.424Z,2.58
2023-06-20T07:34:55.485Z,2.66
2023-06-20T07:35:55.477Z,2.83
2023-06-20T07:36:55.490Z,2.83
2023-06-20T07:37:55.502Z,2.85
2023-06-20T07:38:55.503Z,3.30
2023-06-20T07:39:55.523Z,3.58
2023-06-20T07:40:55.503Z,3.41
2023-06-20T07:41:55.786Z,3.40
2023-06-20T07:42:55.519Z,3.44
2023-06-20T07:43:55.529Z,3.44
2023-06-20T07:44:55.548Z,3.40
2023-06-20T07:45:55.632Z,3.69
2023-06-20T07:46:55.579Z,4.02
2023-06-20T07:47:55.771Z,3.95
2023-06-20T07:48:55.584Z,4.26
2023-06-20T07:49:55.749Z,3.95
2023-06-20T07:50:55.605Z,4.19
2023-06-20T07:51:55.611Z,3.50
2023-06-20T07:52:55.630Z,2.95
2023-06-20T07:53:55.665Z,2.88
2023-06-20T07:54:55.664Z,2.86
2023-06-20T07:55:55.670Z,2.64
2023-06-20T07:56:55.685Z,2.74
2023-06-20T07:57:55.786Z,2.72
2023-06-20T07:58:55.702Z,2.79
2023-06-20T07:59:55.741Z,2.82
2023-06-20T08:00:55.759Z,2.67
2023-06-20T08:01:55.819Z,2.09
2023-06-20T08:02:55.887Z,1.84
2023-06-20T08:03:55.931Z,1.60
2023-06-20T08:04:55.755Z,1.52
2023-06-20T08:05:55.748Z,1.73
2023-06-20T08:06:55.770Z,1.77
2023-06-20T08:07:55.785Z,1.67
2023-06-20T08:08:55.731Z,1.87
2023-06-20T08:09:55.731Z,1.93
2023-06-20T08:10:55.726Z,1.60
2023-06-20T08:11:55.733Z,1.51
2023-06-20T08:12:55.730Z,1.29
2023-06-20T08:13:55.767Z,1.10
2023-06-20T08:14:55.745Z,1.03
2023-06-20T08:15:55.779Z,0.87
2023-06-20T08:16:55.740Z,0.86
2023-06-20T08:17:55.721Z,0.96
2023-06-20T08:18:55.718Z,1.09
2023-06-20T08:19:55.754Z,1.10
2023-06-20T08:20:55.731Z,1.24
2023-06-20T08:21:55.748Z,1.32
2023-06-20T08:22:55.740Z,1.36
2023-06-20T08:23:55.797Z,1.38
2023-06-20T08:24:56.257Z,1.55
2023-06-20T08:25:55.763Z,1.63
2023-06-20T08:26:55.769Z,1.64
2023-06-20T08:28:06.255Z,1.40
2023-06-20T08:28:56.772Z,1.05
2023-06-20T08:29:55.775Z,0.74
2023-06-20T08:30:55.778Z,0.61
2023-06-20T08:31:55.708Z,0.49
2023-06-20T08:32:55.770Z,0.47
2023-06-20T08:33:55.711Z,0.51
2023-06-20T08:34:57.277Z,0.55
2023-06-20T08:35:55.691Z,0.56
2023-06-20T08:36:55.685Z,0.67
2023-06-20T08:37:55.680Z,0.71
2023-06-20T08:38:55.705Z,0.77
2023-06-20T08:39:55.745Z,0.96
2023-06-20T08:40:55.670Z,1.03
2023-06-20T08:41:55.668Z,0.88
2023-06-20T08:42:55.654Z,0.69
2023-06-20T08:43:55.626Z,0.64
2023-06-20T08:44:57.921Z,0.55
2023-06-20T08:45:55.660Z,0.50
2023-06-20T08:46:55.660Z,0.50
2023-06-20T08:47:55.610Z,0.53
2023-06-20T08:48:55.621Z,0.61
2023-06-20T08:49:55.769Z,0.63
2023-06-20T08:50:55.598Z,0.57
2023-06-20T08:51:55.586Z,0.56
2023-06-20T08:52:55.581Z,0.56
2023-06-20T08:53:55.569Z,0.51
2023-06-20T08:54:55.779Z,0.60
2023-06-20T08:55:55.560Z,0.61
2023-06-20T08:56:55.568Z,0.55
2023-06-20T08:57:55.599Z,0.45
2023-06-20T08:58:55.554Z,0.50
2023-06-20T08:59:55.764Z,0.64
2023-06-20T09:00:55.606Z,0.74
2023-06-20T09:01:55.875Z,0.64
2023-06-20T09:02:55.586Z,0.56
2023-06-20T09:03:55.529Z,0.63
2023-06-20T09:04:55.790Z,0.65
2023-06-20T09:05:55.482Z,0.66
2023-06-20T09:06:55.497Z,0.63
2023-06-20T09:07:55.493Z,0.55
2023-06-20T09:08:55.528Z,0.56
2023-06-20T09:09:55.766Z,0.50
2023-06-20T09:10:55.502Z,0.49
2023-06-20T09:11:55.492Z,0.54
2023-06-20T09:12:55.466Z,0.57
2023-06-20T09:13:55.458Z,0.59
2023-06-20T09:14:55.464Z,0.59
2023-06-20T09:15:55.781Z,0.49
2023-06-20T09:16:55.481Z,0.43
2023-06-20T09:17:55.459Z,0.44
2023-06-20T09:18:55.418Z,0.47
2023-06-20T09:19:57.271Z,0.50
2023-06-20T09:20:55.390Z,0.67
2023-06-20T09:22:08.447Z,0.67
2023-06-20T09:22:56.814Z,0.57
2023-06-20T09:23:55.436Z,0.64
2023-06-20T09:24:55.365Z,0.69
2023-06-20T09:25:55.373Z,0.70
2023-06-20T09:26:55.343Z,0.65
2023-06-20T09:27:55.774Z,0.93
2023-06-20T09:28:55.365Z,1.18
2023-06-20T09:29:55.841Z,1.22
2023-06-20T09:30:55.366Z,1.37
2023-06-20T09:31:55.344Z,1.65
2023-06-20T09:32:55.449Z,2.03
2023-06-20T09:33:55.352Z,2.36
2023-06-20T09:34:55.801Z,2.89
2023-06-20T09:35:55.313Z,3.00
2023-06-20T09:36:55.286Z,3.28
2023-06-20T09:37:55.300Z,3.97
2023-06-20T09:38:55.280Z,4.85
2023-06-20T09:39:55.277Z,5.29
2023-06-20T09:40:55.253Z,6.16
2023-06-20T09:41:55.251Z,7.01
2023-06-20T09:42:55.250Z,8.10
2023-06-20T09:43:55.262Z,8.79
2023-06-20T09:44:55.266Z,9.46
2023-06-20T09:45:55.269Z,10.62
2023-06-20T09:46:55.226Z,10.95
2023-06-20T09:47:55.323Z,11.85
2023-06-20T09:48:55.238Z,11.92
2023-06-20T09:49:55.215Z,11.92
2023-06-20T09:50:55.195Z,11.98
2023-06-20T09:51:55.178Z,12.25
2023-06-20T09:52:55.190Z,12.23
2023-06-20T09:53:55.173Z,12.70
2023-06-20T09:54:55.335Z,12.57
2023-06-20T09:55:55.160Z,12.21
2023-06-20T09:56:55.160Z,13.04
2023-06-20T09:57:55.173Z,13.03
2023-06-20T09:58:55.192Z,11.18
2023-06-20T09:59:55.180Z,11.27
2023-06-20T10:00:55.165Z,13.68
2023-06-20T10:01:56.956Z,20.86
2023-06-20T10:02:55.214Z,27.98
2023-06-20T10:03:55.200Z,36.08
2023-06-20T10:04:55.217Z,46.80
2023-06-20T10:05:55.191Z,51.58
2023-06-20T10:06:55.196Z,55.35
2023-06-20T10:07:55.802Z,59.99
2023-06-20T10:08:55.195Z,61.81
2023-06-20T10:09:55.188Z,61.55
2023-06-20T10:10:55.199Z,65.83
2023-06-20T10:11:55.215Z,65.91
2023-06-20T10:12:55.185Z,64.08
2023-06-20T10:13:55.211Z,50.65
2023-06-20T10:14:55.236Z,42.24
2023-06-20T10:15:55.179Z,39.00
2023-06-20T10:16:55.196Z,32.35
2023-06-20T10:17:55.334Z,31.88
2023-06-20T10:18:55.302Z,30.99
2023-06-20T10:19:55.200Z,30.70
2023-06-20T10:20:55.184Z,37.75
2023-06-20T10:21:55.258Z,27.42
2023-06-20T10:22:55.184Z,23.68
2023-06-20T10:23:55.266Z,22.32
2023-06-20T10:24:55.246Z,19.22
2023-06-20T10:25:55.194Z,20.01
2023-06-20T10:26:55.233Z,23.24
2023-06-20T10:27:55.209Z,25.47
2023-06-20T10:28:55.228Z,26.19
2023-06-20T10:29:55.235Z,25.90
2023-06-20T10:30:55.246Z,25.56
2023-06-20T10:31:55.402Z,24.58
2023-06-20T10:32:55.263Z,22.61
2023-06-20T10:33:55.262Z,19.32
2023-06-20T10:34:55.248Z,19.21
2023-06-20T10:35:55.276Z,18.02
2023-06-20T10:36:55.293Z,12.62
2023-06-20T10:37:55.350Z,8.46
2023-06-20T10:38:55.337Z,6.85
2023-06-20T10:39:55.334Z,5.83
2023-06-20T10:40:55.367Z,6.48
2023-06-20T10:41:55.388Z,9.42
2023-06-20T10:42:55.411Z,9.06
2023-06-20T10:43:55.417Z,8.46
2023-06-20T10:44:55.829Z,9.45
2023-06-20T10:45:55.504Z,9.50
2023-06-20T10:46:55.453Z,11.08
2023-06-20T10:47:55.544Z,12.13
2023-06-20T10:48:55.492Z,12.14
2023-06-20T10:49:55.537Z,12.49
2023-06-20T10:50:55.539Z,12.82
2023-06-20T10:51:55.582Z,13.40
2023-06-20T10:52:55.621Z,12.54
2023-06-20T10:53:55.658Z,12.35
2023-06-20T10:54:55.687Z,12.16
2023-06-20T10:55:55.691Z,12.60
2023-06-20T10:56:55.701Z,10.01
2023-06-20T10:57:55.720Z,9.86
2023-06-20T10:58:55.766Z,10.51
2023-06-20T10:59:55.809Z,11.66
2023-06-20T11:00:55.835Z,11.10
2023-06-20T11:01:55.942Z,8.93
2023-06-20T11:02:56.105Z,10.21
2023-06-20T11:03:55.931Z,10.03
2023-06-20T11:04:56.345Z,9.91
2023-06-20T11:05:55.978Z,10.16
2023-06-20T11:06:55.991Z,8.74
2023-06-20T11:07:56.024Z,9.41
2023-06-20T11:08:56.122Z,10.21
2023-06-20T11:09:56.346Z,9.92
2023-06-20T11:10:56.321Z,7.52
2023-06-20T11:11:56.175Z,7.44
2023-06-20T11:12:56.160Z,8.32
2023-06-20T11:13:56.178Z,8.79
2023-06-20T11:14:56.371Z,9.05
2023-06-20T11:15:56.257Z,6.84
2023-06-20T11:16:56.288Z,6.81
2023-06-20T11:17:56.522Z,6.28
2023-06-20T11:18:56.639Z,6.06
2023-06-20T11:19:56.472Z,5.59
2023-06-20T11:20:56.379Z,5.75
2023-06-20T11:21:56.417Z,5.48
2023-06-20T11:22:56.422Z,5.54
2023-06-20T11:23:56.461Z,6.09
2023-06-20T11:24:56.548Z,6.85
2023-06-20T11:25:59.050Z,6.71
2023-06-20T11:26:56.507Z,5.93
2023-06-20T11:27:56.527Z,5.78
2023-06-20T11:29:09.869Z,6.56
2023-06-20T11:29:57.473Z,6.39
2023-06-20T11:30:56.539Z,6.77
2023-06-20T11:31:56.521Z,7.16
2023-06-20T11:32:56.495Z,7.78
2023-06-20T11:33:56.461Z,9.10
2023-06-20T11:34:56.494Z,9.52
2023-06-20T11:35:56.466Z,9.45
2023-06-20T11:36:56.458Z,9.12
2023-06-20T11:37:56.532Z,8.27
2023-06-20T11:38:56.479Z,8.21
2023-06-20T11:39:56.457Z,8.55
2023-06-20T11:40:56.473Z,8.84
2023-06-20T11:41:57.374Z,8.52
2023-06-20T11:42:56.420Z,8.78
2023-06-20T11:43:56.400Z,9.05
2023-06-20T11:44:56.412Z,8.64
2023-06-20T11:45:57.370Z,8.08
2023-06-20T11:46:56.542Z,8.72
2023-06-20T11:47:56.543Z,8.43
2023-06-20T11:48:56.568Z,8.36
2023-06-20T11:49:56.577Z,7.71
2023-06-20T11:50:56.640Z,7.40
2023-06-20T11:51:56.644Z,7.59
2023-06-20T11:52:56.689Z,7.40
2023-06-20T11:53:56.698Z,7.63
2023-06-20T11:54:56.770Z,7.37
2023-06-20T11:56:00.276Z,7.06
2023-06-20T11:56:56.808Z,5.13
2023-06-20T11:57:56.782Z,5.43
2023-06-20T11:58:56.792Z,5.72
2023-06-20T11:59:56.763Z,5.47
2023-06-20T12:00:56.726Z,4.87
2023-06-20T12:01:56.781Z,5.46
2023-06-20T12:02:56.782Z,6.75
2023-06-20T12:03:56.778Z,5.95
2023-06-20T12:04:56.763Z,4.47
2023-06-20T12:05:56.738Z,3.60
2023-06-20T12:06:56.724Z,2.96
2023-06-20T12:07:56.702Z,3.21
2023-06-20T12:08:56.741Z,5.34
2023-06-20T12:09:56.694Z,6.56
2023-06-20T12:10:56.725Z,7.17
2023-06-20T12:11:56.699Z,7.23
2023-06-20T12:12:56.687Z,6.84
2023-06-20T12:13:56.673Z,6.69
2023-06-20T12:14:56.670Z,7.11
2023-06-20T12:15:56.665Z,7.72
2023-06-20T12:16:56.667Z,8.12
2023-06-20T12:17:56.734Z,9.34
2023-06-20T12:18:56.670Z,8.58
2023-06-20T12:19:56.686Z,7.62
2023-06-20T12:21:03.286Z,6.43
2023-06-20T12:21:57.627Z,6.49
2023-06-20T12:22:56.658Z,6.86
2023-06-20T12:23:56.668Z,7.45
2023-06-20T12:24:56.641Z,8.14
2023-06-20T12:25:56.600Z,9.43
2023-06-20T12:26:56.608Z,9.94
2023-06-20T12:27:56.627Z,10.25
2023-06-20T12:28:56.610Z,10.50
2023-06-20T12:29:56.564Z,9.96
2023-06-20T12:30:56.612Z,9.93
2023-06-20T12:31:56.618Z,10.10
2023-06-20T12:32:56.755Z,10.08
2023-06-20T12:33:56.696Z,10.09
2023-06-20T12:34:56.915Z,9.96
2023-06-20T12:35:56.575Z,10.26
2023-06-20T12:36:56.559Z,11.10
2023-06-20T12:37:56.586Z,10.49
2023-06-20T12:38:56.539Z,10.29
2023-06-20T12:39:56.565Z,9.96
2023-06-20T12:40:56.574Z,9.90
2023-06-20T12:41:56.504Z,9.93
2023-06-20T12:42:56.582Z,9.52
2023-06-20T12:43:56.540Z,9.10
2023-06-20T12:44:56.541Z,9.23
2023-06-20T12:45:56.635Z,7.81
2023-06-20T12:46:56.530Z,8.60
2023-06-20T12:47:56.642Z,7.84
2023-06-20T12:48:56.535Z,8.11
2023-06-20T12:49:56.559Z,8.24
2023-06-20T12:50:56.526Z,7.45
2023-06-20T12:51:56.515Z,7.20
2023-06-20T12:52:56.511Z,7.23
2023-06-20T12:53:56.535Z,7.23
2023-06-20T12:54:56.611Z,6.35
2023-06-20T12:55:56.590Z,5.67
2023-06-20T12:56:56.623Z,4.97
2023-06-20T12:57:56.685Z,3.82
2023-06-20T12:58:56.684Z,3.37
2023-06-20T12:59:56.680Z,3.19
2023-06-20T13:00:58.649Z,2.90
2023-06-20T13:01:56.743Z,3.09
2023-06-20T13:02:56.820Z,2.86
2023-06-20T13:03:56.807Z,2.90
2023-06-20T13:04:56.784Z,2.96
2023-06-20T13:05:56.824Z,2.79
2023-06-20T13:06:56.893Z,2.75
2023-06-20T13:07:56.924Z,2.58
2023-06-20T13:08:56.984Z,2.65
2023-06-20T13:09:56.960Z,2.72
2023-06-20T13:10:57.391Z,2.87
2023-06-20T13:11:57.083Z,2.81
2023-06-20T13:12:57.064Z,2.95
2023-06-20T13:13:57.033Z,2.83
2023-06-20T13:15:07.126Z,2.86